Time;durP1;ratioP1;P1;durP2;ratioP2;P2;SDS_P1;SDS_P2;PMS_P1;PMS_P2;Temp;Humidity;BMP_temperature;BMP_pressure;BME280_temperature;BME280_humidity;BME280_pressure;Samples;Min_cycle;Max_cycle;Signal;HPM_P1;HPM_P2
2023/05/16 00:01:47;;;;;;;13.98;3.33;;;9.80;84.00;;;;;;5045446;28;20457;-44
2023/05/16 00:04:16;;;;;;;15.23;3.45;;;9.80;84.10;;;;;;5030823;28;20030;-44
2023/05/16 00:06:43;;;;;;;17.95;3.42;;;9.80;84.30;;;;;;5032342;28;20051;-44
2023/05/16 00:09:09;;;;;;;19.23;3.55;;;9.80;83.60;;;;;;5032536;28;20037;-44
2023/05/16 00:11:36;;;;;;;12.02;2.75;;;9.80;83.40;;;;;;5043284;28;20080;-44
2023/05/16 00:14:09;;;;;;;15.93;4.45;;;9.80;83.60;;;;;;5042836;28;20026;-42
2023/05/16 00:16:40;;;;;;;17.27;3.35;;;9.80;83.70;;;;;;5033623;28;20033;-43
2023/05/16 00:19:10;;;;;;;20.98;3.47;;;9.80;83.30;;;;;;5043545;28;20115;-43
2023/05/16 00:21:39;;;;;;;10.43;2.97;;;9.80;83.40;;;;;;5032955;28;20083;-45
2023/05/16 00:24:05;;;;;;;18.98;4.15;;;9.80;83.30;;;;;;5032954;28;20370;-43
2023/05/16 00:26:30;;;;;;;17.85;3.85;;;9.80;83.10;;;;;;5040656;28;20117;-44
2023/05/16 00:28:56;;;;;;;18.65;3.10;;;9.80;83.40;;;;;;5039095;28;20029;-43
2023/05/16 00:31:23;;;;;;;12.30;3.28;;;9.80;83.30;;;;;;5033192;28;20044;-44
2023/05/16 00:33:51;;;;;;;15.48;3.90;;;9.70;83.40;;;;;;5047578;28;20095;-44
2023/05/16 00:36:20;;;;;;;15.07;3.53;;;9.70;83.30;;;;;;5037747;28;20045;-44
2023/05/16 00:38:48;;;;;;;18.73;3.88;;;9.70;83.20;;;;;;5032473;28;20414;-44
2023/05/16 00:41:17;;;;;;;17.48;3.50;;;9.70;83.00;;;;;;5042178;28;20029;-44
2023/05/16 00:43:44;;;;;;;15.52;3.30;;;9.70;83.40;;;;;;5042979;28;20017;-44
2023/05/16 00:46:11;;;;;;;17.40;2.95;;;9.70;82.50;;;;;;5022566;28;20610;-44
2023/05/16 00:48:38;;;;;;;23.63;4.53;;;9.70;82.80;;;;;;5050968;28;20021;-45
2023/05/16 00:51:08;;;;;;;14.27;3.25;;;9.60;82.60;;;;;;5032615;28;20052;-45
2023/05/16 00:53:36;;;;;;;13.52;3.78;;;9.60;82.60;;;;;;5032770;28;20483;-45
2023/05/16 00:56:05;;;;;;;18.42;4.22;;;9.50;82.90;;;;;;5036728;28;20171;-44
2023/05/16 00:58:34;;;;;;;15.02;3.83;;;9.50;83.20;;;;;;5023383;28;20086;-44
2023/05/16 01:01:02;;;;;;;20.70;3.92;;;9.50;83.10;;;;;;5046980;28;20104;-44
2023/05/16 01:03:30;;;;;;;11.17;2.80;;;9.50;82.60;;;;;;5053847;28;20478;-45
2023/05/16 01:05:59;;;;;;;18.63;3.88;;;9.40;82.20;;;;;;5042385;28;20030;-44
2023/05/16 01:08:26;;;;;;;15.65;3.00;;;9.40;82.10;;;;;;5046689;28;20030;-44
2023/05/16 01:11:12;;;;;;;11.93;3.00;;;9.30;81.90;;;;;;5038309;28;20032;-46
2023/05/16 01:14:18;;;;;;;19.27;3.55;;;9.20;82.20;;;;;;5036152;28;20026;-45
2023/05/16 01:17:10;;;;;;;22.67;3.45;;;9.10;82.40;;;;;;5035600;28;20121;-44
2023/05/16 01:20:07;;;;;;;16.40;3.20;;;9.00;82.60;;;;;;5039279;28;20057;-44
2023/05/16 01:23:04;;;;;;;17.27;3.20;;;9.00;82.60;;;;;;5055634;28;20078;-45
2023/05/16 01:25:38;;;;;;;22.25;2.95;;;8.90;82.70;;;;;;5037022;28;20037;-44
2023/05/16 01:28:11;;;;;;;18.98;3.72;;;8.80;82.60;;;;;;5054661;28;20467;-45
2023/05/16 01:30:41;;;;;;;13.80;2.58;;;8.80;82.90;;;;;;5055782;28;20171;-44
2023/05/16 01:33:09;;;;;;;10.40;2.90;;;8.80;82.60;;;;;;5026365;28;20518;-44
2023/05/16 01:35:44;;;;;;;15.65;2.75;;;8.80;82.00;;;;;;5038634;28;20370;-45
2023/05/16 01:38:33;;;;;;;15.63;3.08;;;8.80;81.70;;;;;;5037137;28;20125;-44
2023/05/16 01:41:29;;;;;;;15.93;2.57;;;8.80;81.90;;;;;;5037521;28;20033;-45
2023/05/16 01:44:00;;;;;;;15.55;3.38;;;8.90;82.10;;;;;;5032204;28;20068;-44
2023/05/16 01:46:39;;;;;;;22.45;2.85;;;8.90;82.30;;;;;;5034263;28;20021;-44
2023/05/16 01:49:32;;;;;;;16.60;5.73;;;8.90;82.10;;;;;;5050579;28;20079;-45
2023/05/16 01:52:06;;;;;;;15.38;2.35;;;8.90;81.80;;;;;;5044994;28;20082;-45
2023/05/16 01:54:38;;;;;;;15.10;3.03;;;8.90;81.50;;;;;;5046169;28;20057;-44
2023/05/16 01:57:20;;;;;;;13.35;2.30;;;8.90;81.60;;;;;;5038890;28;20039;-45
2023/05/16 01:59:50;;;;;;;12.70;2.88;;;8.90;81.20;;;;;;5053219;28;20029;-45
2023/05/16 02:02:20;;;;;;;11.55;2.58;;;8.90;80.90;;;;;;5054204;28;20135;-46
2023/05/16 02:04:46;;;;;;;11.43;2.47;;;8.80;81.20;;;;;;5044541;28;20029;-46
2023/05/16 02:07:14;;;;;;;13.43;2.88;;;8.80;80.90;;;;;;5035273;28;20602;-44
2023/05/16 02:09:41;;;;;;;12.27;2.97;;;8.90;80.90;;;;;;5044948;28;20029;-45
2023/05/16 02:12:09;;;;;;;11.90;2.53;;;8.80;80.80;;;;;;5053848;28;20050;-45
2023/05/16 02:14:37;;;;;;;18.50;4.00;;;8.90;81.10;;;;;;5045569;28;20030;-45
2023/05/16 02:17:04;;;;;;;17.85;3.55;;;8.90;81.30;;;;;;5054296;28;20528;-45
2023/05/16 02:19:31;;;;;;;18.42;3.05;;;8.90;81.40;;;;;;5036180;28;20057;-45
2023/05/16 02:21:58;;;;;;;15.02;2.88;;;8.90;81.70;;;;;;5050465;28;20033;-45
2023/05/16 02:24:25;;;;;;;17.30;2.85;;;8.90;81.60;;;;;;5036902;28;20463;-45
2023/05/16 02:26:52;;;;;;;12.32;2.60;;;8.90;81.30;;;;;;5038421;28;20064;-44
2023/05/16 02:29:20;;;;;;;12.93;3.15;;;8.90;80.70;;;;;;5048175;28;20040;-45
2023/05/16 02:31:47;;;;;;;17.50;3.03;;;8.80;81.00;;;;;;5049448;28;20055;-44
2023/05/16 02:34:12;;;;;;;11.48;3.85;;;8.70;81.30;;;;;;5053830;28;20365;-48
2023/05/16 02:36:39;;;;;;;22.60;2.70;;;8.70;81.60;;;;;;5050531;28;20025;-44
2023/05/16 02:39:08;;;;;;;16.63;4.68;;;8.60;81.80;;;;;;5054406;28;20013;-47
2023/05/16 02:41:36;;;;;;;12.27;2.55;;;8.50;81.90;;;;;;5052507;28;20562;-44
2023/05/16 02:44:04;;;;;;;12.57;2.13;;;8.50;82.10;;;;;;5054191;28;20148;-45
2023/05/16 02:46:33;;;;;;;16.63;2.88;;;8.50;82.10;;;;;;5036298;28;20377;-47
2023/05/16 02:49:01;;;;;;;11.65;3.22;;;8.40;82.30;;;;;;5052343;28;20025;-45
2023/05/16 02:51:28;;;;;;;18.67;2.75;;;8.40;82.50;;;;;;5053843;28;20031;-44
2023/05/16 02:54:02;;;;;;;15.40;3.38;;;8.40;82.50;;;;;;5033258;28;20083;-45
2023/05/16 02:56:34;;;;;;;10.65;4.00;;;8.40;82.40;;;;;;5042106;28;20036;-46
2023/05/16 02:59:02;;;;;;;14.55;2.80;;;8.30;82.30;;;;;;5015931;28;20033;-45
2023/05/16 03:01:30;;;;;;;16.52;2.58;;;8.30;82.60;;;;;;5037188;28;20367;-45
2023/05/16 03:03:59;;;;;;;20.75;2.72;;;8.30;82.60;;;;;;5046197;28;20102;-43
2023/05/16 03:06:25;;;;;;;13.80;2.70;;;8.30;82.40;;;;;;5032377;28;20454;-45
2023/05/16 03:08:52;;;;;;;15.60;4.55;;;8.30;82.50;;;;;;5016135;28;20032;-46
2023/05/16 03:11:24;;;;;;;16.45;3.08;;;8.40;82.30;;;;;;5036345;28;20335;-45
2023/05/16 03:13:51;;;;;;;12.55;2.70;;;8.40;82.50;;;;;;5034384;28;20454;-45
2023/05/16 03:16:20;;;;;;;12.43;2.78;;;8.40;82.10;;;;;;5034010;28;20037;-44
2023/05/16 03:18:48;;;;;;;12.07;2.42;;;8.50;81.80;;;;;;5041518;28;20059;-46
2023/05/16 03:21:13;;;;;;;12.93;2.10;;;8.50;81.30;;;;;;5032489;28;20104;-46
2023/05/16 03:23:39;;;;;;;10.48;2.15;;;8.40;81.30;;;;;;5021115;28;20112;-45
2023/05/16 03:26:07;;;;;;;13.88;2.58;;;8.40;81.50;;;;;;5047224;28;20155;-45
2023/05/16 03:28:34;;;;;;;8.85;2.20;;;8.40;81.40;;;;;;5040368;28;20060;-46
2023/05/16 03:31:02;;;;;;;19.17;3.85;;;8.40;81.50;;;;;;5033549;28;20029;-45
2023/05/16 03:33:29;;;;;;;22.70;2.90;;;8.40;81.60;;;;;;5033900;28;20056;-44
2023/05/16 03:35:55;;;;;;;13.55;3.28;;;8.40;81.60;;;;;;5034436;28;20033;-46
2023/05/16 03:38:24;;;;;;;9.38;3.28;;;8.40;81.50;;;;;;5046019;28;20030;-44
2023/05/16 03:40:53;;;;;;;15.40;3.22;;;8.40;81.50;;;;;;5035335;28;20443;-44
2023/05/16 03:43:21;;;;;;;13.73;2.80;;;8.40;81.50;;;;;;5033399;28;20067;-45
2023/05/16 03:45:49;;;;;;;20.90;4.95;;;8.30;81.20;;;;;;5033600;28;20029;-44
2023/05/16 03:48:15;;;;;;;11.52;2.97;;;8.30;80.70;;;;;;5033192;28;20045;-46
2023/05/16 03:50:46;;;;;;;11.30;2.00;;;8.30;80.60;;;;;;5039433;28;20099;-44
2023/05/16 03:53:12;;;;;;;11.25;2.22;;;8.30;80.50;;;;;;5045021;28;20604;-46
2023/05/16 03:55:40;;;;;;;11.20;2.72;;;8.40;80.60;;;;;;5035588;28;20044;-45
2023/05/16 03:58:09;;;;;;;14.63;2.80;;;8.30;80.60;;;;;;5038190;28;20108;-45
2023/05/16 04:00:37;;;;;;;10.98;2.35;;;8.30;80.90;;;;;;5034672;28;20038;-45
2023/05/16 04:03:03;;;;;;;10.80;2.45;;;8.30;81.00;;;;;;5042453;28;20061;-45
2023/05/16 04:05:31;;;;;;;16.90;3.03;;;8.30;80.90;;;;;;5042411;28;20041;-44
2023/05/16 04:07:57;;;;;;;10.52;2.38;;;8.30;80.80;;;;;;5019476;28;20067;-45
2023/05/16 04:10:27;;;;;;;12.93;2.03;;;8.40;80.20;;;;;;5051246;28;20597;-44
2023/05/16 04:12:54;;;;;;;13.10;3.08;;;8.40;80.20;;;;;;5047722;28;20041;-47
2023/05/16 04:15:21;;;;;;;14.82;3.55;;;8.40;80.40;;;;;;5052653;28;20121;-45
2023/05/16 04:17:49;;;;;;;11.95;2.10;;;8.40;80.50;;;;;;5045606;28;20033;-44
2023/05/16 04:20:18;;;;;;;12.80;3.10;;;8.40;80.60;;;;;;5051971;28;20116;-45
2023/05/16 04:22:46;;;;;;;16.60;3.53;;;8.50;80.60;;;;;;5048316;28;20117;-45
2023/05/16 04:25:13;;;;;;;9.95;2.30;;;8.60;80.50;;;;;;5047183;28;20029;-45
2023/05/16 04:27:41;;;;;;;14.40;2.97;;;8.70;80.50;;;;;;5048887;28;20070;-46
2023/05/16 04:30:07;;;;;;;12.35;3.75;;;8.80;80.40;;;;;;5041951;28;20025;-45
2023/05/16 04:32:35;;;;;;;15.07;2.60;;;8.80;80.60;;;;;;5051735;28;20041;-46
2023/05/16 04:35:04;;;;;;;12.23;1.98;;;8.80;80.80;;;;;;5056040;28;20027;-45
2023/05/16 04:37:31;;;;;;;10.30;2.47;;;8.70;81.20;;;;;;5055827;28;20458;-48
2023/05/16 04:39:58;;;;;;;13.30;2.42;;;8.70;81.60;;;;;;5046307;28;20108;-45
2023/05/16 04:42:24;;;;;;;13.25;2.58;;;8.70;81.70;;;;;;5054241;28;20036;-44
2023/05/16 04:44:51;;;;;;;7.75;2.03;;;8.60;81.60;;;;;;5055548;28;20025;-45
2023/05/16 04:47:18;;;;;;;9.18;2.25;;;8.70;81.70;;;;;;5053765;28;20036;-45
2023/05/16 04:49:45;;;;;;;11.23;2.40;;;8.70;81.40;;;;;;5049777;28;20025;-44
2023/05/16 04:52:13;;;;;;;21.40;2.38;;;8.80;80.60;;;;;;5028529;28;20029;-45
2023/05/16 04:54:40;;;;;;;15.32;2.85;;;9.00;80.00;;;;;;5028545;28;20064;-45
2023/05/16 04:57:07;;;;;;;14.50;2.65;;;9.20;79.70;;;;;;5038260;28;20121;-45
2023/05/16 04:59:34;;;;;;;10.13;2.55;;;9.40;79.40;;;;;;5038602;28;20450;-45
2023/05/16 05:02:03;;;;;;;10.82;2.33;;;9.50;79.00;;;;;;5051302;28;20083;-45
2023/05/16 05:04:36;;;;;;;8.32;2.33;;;9.50;78.30;;;;;;5054446;28;20029;-45
2023/05/16 05:07:05;;;;;;;12.65;3.00;;;9.60;77.30;;;;;;5056607;28;20029;-47
2023/05/16 05:09:31;;;;;;;8.32;2.20;;;9.50;77.60;;;;;;5055538;28;20064;-49
2023/05/16 05:12:01;;;;;;;7.93;1.83;;;9.60;77.70;;;;;;5036349;28;20391;-45
2023/05/16 05:14:30;;;;;;;14.63;2.35;;;9.70;76.90;;;;;;5036655;28;20036;-46
2023/05/16 05:16:57;;;;;;;12.00;2.78;;;9.90;76.70;;;;;;5035995;28;20509;-45
2023/05/16 05:19:25;;;;;;;18.92;3.22;;;10.00;75.70;;;;;;5044050;28;20038;-45
2023/05/16 05:21:54;;;;;;;9.13;1.83;;;10.10;76.00;;;;;;5038673;28;20025;-45
2023/05/16 05:24:22;;;;;;;14.43;4.13;;;10.00;75.60;;;;;;5045524;28;20033;-45
2023/05/16 05:26:48;;;;;;;10.77;2.08;;;9.90;75.90;;;;;;5050746;28;20600;-44
2023/05/16 05:29:15;;;;;;;7.47;1.98;;;9.90;75.60;;;;;;5026814;28;20084;-48
2023/05/16 05:31:43;;;;;;;12.23;2.70;;;9.90;75.70;;;;;;5047249;28;20036;-45
2023/05/16 05:34:11;;;;;;;11.82;2.22;;;9.90;75.50;;;;;;5034210;28;20021;-46
2023/05/16 05:36:38;;;;;;;8.15;2.00;;;9.90;76.10;;;;;;5055322;28;20463;-45
2023/05/16 05:39:05;;;;;;;11.20;2.63;;;9.80;76.60;;;;;;5029712;28;20409;-45
2023/05/16 05:41:32;;;;;;;15.68;2.78;;;9.80;77.10;;;;;;5048299;28;20038;-45
2023/05/16 05:43:59;;;;;;;20.20;2.65;;;9.90;77.20;;;;;;5034051;28;20032;-45
2023/05/16 05:46:26;;;;;;;6.72;2.13;;;9.90;76.90;;;;;;5053024;28;20485;-46
2023/05/16 05:48:54;;;;;;;10.73;2.25;;;10.10;76.60;;;;;;5054629;28;20093;-48
2023/05/16 05:51:21;;;;;;;11.00;1.95;;;10.20;75.80;;;;;;5049789;28;20025;-47
2023/05/16 05:53:49;;;;;;;9.48;1.80;;;10.40;74.00;;;;;;5036955;28;20044;-45
2023/05/16 05:56:17;;;;;;;11.38;3.40;;;10.40;74.10;;;;;;5051274;28;20031;-49
2023/05/16 05:58:48;;;;;;;12.15;2.35;;;10.60;74.40;;;;;;5045847;28;20032;-45
2023/05/16 06:01:15;;;;;;;9.98;2.20;;;10.70;73.80;;;;;;5033065;28;20021;-45
2023/05/16 06:03:44;;;;;;;9.57;2.13;;;10.80;72.70;;;;;;5049987;28;20128;-47
2023/05/16 06:06:13;;;;;;;9.63;2.13;;;11.00;72.70;;;;;;5037138;28;20520;-44
2023/05/16 06:08:41;;;;;;;7.35;1.45;;;11.40;73.70;;;;;;5047453;28;20037;-45
2023/05/16 06:11:09;;;;;;;9.43;2.28;;;11.10;73.00;;;;;;5053741;28;20037;-46
2023/05/16 06:13:37;;;;;;;3.60;0.98;;;10.80;73.40;;;;;;5054107;28;20025;-49
2023/05/16 06:16:04;;;;;;;10.20;2.60;;;10.40;72.90;;;;;;5053731;28;20112;-44
2023/05/16 06:18:34;;;;;;;11.32;2.40;;;10.10;73.70;;;;;;5053891;28;20478;-45
2023/05/16 06:21:02;;;;;;;7.70;1.85;;;10.10;74.80;;;;;;5053725;28;20087;-47
2023/05/16 06:23:29;;;;;;;9.13;2.40;;;10.20;75.00;;;;;;5051072;28;20045;-46
2023/05/16 06:25:55;;;;;;;10.07;2.47;;;10.30;75.40;;;;;;5053707;28;20044;-47
2023/05/16 06:28:23;;;;;;;9.18;2.47;;;10.60;75.50;;;;;;5042349;28;20028;-46
2023/05/16 06:30:50;;;;;;;9.07;2.13;;;10.90;75.50;;;;;;5046947;28;20040;-44
2023/05/16 06:33:17;;;;;;;7.45;1.90;;;10.80;72.30;;;;;;5035181;28;20394;-45
2023/05/16 06:35:43;;;;;;;6.28;1.75;;;10.70;70.70;;;;;;5026413;28;20052;-45
2023/05/16 06:38:12;;;;;;;11.02;2.28;;;10.60;71.80;;;;;;5034838;28;20041;-45
2023/05/16 06:40:40;;;;;;;6.22;1.30;;;10.70;72.00;;;;;;5038537;28;20132;-46
2023/05/16 06:43:06;;;;;;;9.40;2.38;;;10.60;73.00;;;;;;5052960;28;20044;-45
2023/05/16 06:45:33;;;;;;;12.30;2.67;;;10.80;74.50;;;;;;5045893;28;20427;-45
2023/05/16 06:48:00;;;;;;;11.30;3.00;;;10.90;75.10;;;;;;5016769;28;20052;-46
2023/05/16 06:50:27;;;;;;;11.52;2.47;;;11.10;75.10;;;;;;5034411;28;20116;-45
2023/05/16 06:52:53;;;;;;;17.65;3.00;;;11.20;74.40;;;;;;5048403;28;20035;-47
2023/05/16 06:55:19;;;;;;;11.55;2.65;;;10.90;73.70;;;;;;5052844;28;20074;-45
2023/05/16 06:57:46;;;;;;;9.10;1.98;;;10.60;73.40;;;;;;5035026;28;20381;-45
2023/05/16 07:00:14;;;;;;;13.63;3.60;;;10.60;73.50;;;;;;5044515;28;20106;-45
2023/05/16 07:02:40;;;;;;;10.73;2.58;;;10.80;72.40;;;;;;5052621;28;20029;-44
2023/05/16 07:05:07;;;;;;;21.10;3.22;;;10.80;71.30;;;;;;5039234;28;20051;-45
2023/05/16 07:07:33;;;;;;;11.35;1.83;;;10.70;71.70;;;;;;5034062;28;20331;-45
2023/05/16 07:10:02;;;;;;;7.95;2.35;;;10.90;72.20;;;;;;5036099;28;20025;-45
2023/05/16 07:12:30;;;;;;;16.90;2.90;;;11.10;71.30;;;;;;5023992;28;20037;-46
2023/05/16 07:14:59;;;;;;;11.48;2.47;;;11.50;70.10;;;;;;5042217;28;20039;-45
2023/05/16 07:17:27;;;;;;;20.42;2.75;;;11.80;69.40;;;;;;5047414;28;20378;-46
2023/05/16 07:19:53;;;;;;;15.88;2.78;;;11.90;68.20;;;;;;5046547;28;20111;-45
2023/05/16 07:22:19;;;;;;;8.82;1.92;;;11.70;68.40;;;;;;5035352;28;20029;-46
2023/05/16 07:24:45;;;;;;;11.73;2.10;;;11.60;69.60;;;;;;5046825;28;20454;-49
2023/05/16 07:27:12;;;;;;;7.28;1.48;;;11.30;69.20;;;;;;5035947;28;20044;-45
2023/05/16 07:29:40;;;;;;;9.75;2.60;;;10.90;68.80;;;;;;5053666;28;20064;-45
2023/05/16 07:32:08;;;;;;;10.13;2.20;;;11.10;70.60;;;;;;5033375;28;20155;-46
2023/05/16 07:34:35;;;;;;;11.15;2.75;;;11.70;68.70;;;;;;5034726;28;20493;-45
2023/05/16 07:37:02;;;;;;;6.80;1.98;;;12.20;67.10;;;;;;5032762;28;20034;-48
2023/05/16 07:39:29;;;;;;;10.10;2.45;;;12.80;64.90;;;;;;5042869;28;20051;-48
2023/05/16 07:41:56;;;;;;;5.53;1.77;;;13.40;62.50;;;;;;5050401;28;20461;-46
2023/05/16 07:44:24;;;;;;;9.73;2.38;;;13.50;61.40;;;;;;5052461;28;20102;-46
2023/05/16 07:46:53;;;;;;;10.57;2.65;;;13.70;59.60;;;;;;5034621;28;20090;-47
2023/05/16 07:49:18;;;;;;;16.10;2.60;;;13.80;61.10;;;;;;5049714;28;20460;-47
2023/05/16 07:51:46;;;;;;;7.88;2.35;;;14.00;61.50;;;;;;5046949;28;20100;-46
2023/05/16 07:54:13;;;;;;;11.23;2.53;;;14.40;59.50;;;;;;5035641;28;20438;-45
2023/05/16 07:56:40;;;;;;;9.20;1.95;;;13.70;59.90;;;;;;5051338;28;20103;-45
2023/05/16 07:59:06;;;;;;;9.18;2.80;;;13.20;62.50;;;;;;5044097;28;20050;-45
2023/05/16 08:01:33;;;;;;;11.88;3.25;;;12.60;65.00;;;;;;5032645;28;20455;-45
2023/05/16 08:04:01;;;;;;;9.43;2.13;;;13.00;64.60;;;;;;5052948;28;20409;-46
2023/05/16 08:06:33;;;;;;;10.35;2.53;;;12.60;63.90;;;;;;5053065;28;20685;-45
2023/05/16 08:08:59;;;;;;;7.28;1.85;;;11.80;64.80;;;;;;5047272;28;20083;-47
2023/05/16 08:11:30;;;;;;;9.80;1.70;;;11.00;68.50;;;;;;5047731;28;20025;-45
2023/05/16 08:13:58;;;;;;;7.35;1.80;;;10.50;71.50;;;;;;5024557;28;20467;-44
2023/05/16 08:16:27;;;;;;;6.20;1.17;;;10.30;73.50;;;;;;5032841;28;20049;-44
2023/05/16 08:18:55;;;;;;;8.52;1.00;;;10.10;72.70;;;;;;5032664;28;20099;-43
2023/05/16 08:21:22;;;;;;;6.90;1.20;;;10.60;74.00;;;;;;5048352;28;20052;-42
2023/05/16 08:23:49;;;;;;;5.40;1.27;;;11.30;72.30;;;;;;5052514;28;20043;-44
2023/05/16 08:26:17;;;;;;;3.75;1.10;;;11.40;70.90;;;;;;5035715;28;20021;-43
2023/05/16 08:28:46;;;;;;;11.77;1.73;;;11.40;71.10;;;;;;5036180;28;20490;-44
2023/05/16 08:31:13;;;;;;;10.38;4.53;;;11.60;71.50;;;;;;5041930;28;20093;-44
2023/05/16 08:33:41;;;;;;;5.20;1.40;;;12.10;70.60;;;;;;5050915;28;20037;-45
2023/05/16 08:36:09;;;;;;;11.02;1.88;;;12.00;67.80;;;;;;5032644;28;20026;-45
2023/05/16 08:38:36;;;;;;;10.63;1.83;;;11.50;67.70;;;;;;5032631;28;20124;-46
2023/05/16 08:41:03;;;;;;;6.40;1.98;;;11.10;69.20;;;;;;5037836;28;20029;-46
2023/05/16 08:43:29;;;;;;;11.43;2.17;;;11.00;71.80;;;;;;5031331;28;20053;-46
2023/05/16 08:45:57;;;;;;;6.65;1.90;;;10.90;72.70;;;;;;5035888;28;20390;-45
2023/05/16 08:48:27;;;;;;;10.75;3.65;;;10.90;72.00;;;;;;5032524;28;20029;-45
2023/05/16 08:50:54;;;;;;;7.78;2.10;;;10.90;72.60;;;;;;5031727;28;20055;-46
2023/05/16 08:53:25;;;;;;;3.97;1.40;;;10.90;71.60;;;;;;5031688;28;20052;-48
2023/05/16 08:55:52;;;;;;;7.57;2.20;;;10.90;71.60;;;;;;5041362;28;20021;-47
2023/05/16 08:58:19;;;;;;;8.65;1.98;;;11.60;71.70;;;;;;5017989;28;20040;-48
2023/05/16 09:00:47;;;;;;;7.88;2.03;;;12.80;72.50;;;;;;5028220;28;20033;-46
2023/05/16 09:03:16;;;;;;;14.80;6.72;;;13.40;67.50;;;;;;5031313;28;20025;-46
2023/05/16 09:05:43;;;;;;;10.45;2.42;;;13.10;67.30;;;;;;5032394;28;20053;-47
2023/05/16 09:08:10;;;;;;;12.57;3.45;;;12.50;68.20;;;;;;5031841;28;20489;-48
2023/05/16 09:10:36;;;;;;;14.25;2.17;;;12.00;69.30;;;;;;5042468;28;20044;-47
2023/05/16 09:13:05;;;;;;;12.40;2.03;;;11.20;68.40;;;;;;5046012;28;20033;-46
2023/05/16 09:15:40;;;;;;;13.48;2.30;;;11.20;69.80;;;;;;5038945;28;20048;-49
2023/05/16 09:18:12;;;;;;;10.50;2.50;;;11.40;70.30;;;;;;5051152;28;20037;-45
2023/05/16 09:20:45;;;;;;;17.75;2.95;;;11.60;72.10;;;;;;5037401;28;20047;-45
2023/05/16 09:23:14;;;;;;;8.02;2.17;;;11.90;72.00;;;;;;5026403;28;20045;-46
2023/05/16 09:25:41;;;;;;;5.85;1.50;;;11.90;65.20;;;;;;5038347;28;20090;-45
2023/05/16 09:28:10;;;;;;;5.55;1.92;;;11.90;64.80;;;;;;5054635;28;20017;-47
2023/05/16 09:30:38;;;;;;;8.27;2.20;;;12.40;66.80;;;;;;5036641;28;20041;-46
2023/05/16 09:33:09;;;;;;;8.25;1.58;;;13.30;65.50;;;;;;5050715;28;20124;-46
2023/05/16 09:35:37;;;;;;;3.53;1.35;;;13.60;63.80;;;;;;5052364;28;20112;-46
2023/05/16 09:38:03;;;;;;;4.10;1.50;;;13.90;61.00;;;;;;5028724;28;20035;-46
2023/05/16 09:40:32;;;;;;;4.72;1.70;;;13.70;58.50;;;;;;5053677;28;20064;-45
2023/05/16 09:43:08;;;;;;;5.97;1.45;;;13.70;58.20;;;;;;5054849;28;20465;-46
2023/05/16 09:45:35;;;;;;;5.65;1.67;;;13.80;60.20;;;;;;5054707;28;20032;-46
2023/05/16 09:48:06;;;;;;;3.63;0.90;;;14.00;58.00;;;;;;5037348;28;20029;-47
2023/05/16 09:50:35;;;;;;;4.63;1.17;;;14.00;57.20;;;;;;5054981;28;20025;-46
2023/05/16 09:53:04;;;;;;;9.32;2.15;;;14.10;55.10;;;;;;5054178;28;20354;-47
2023/05/16 09:55:33;;;;;;;6.88;1.75;;;14.30;55.90;;;;;;5061625;28;20105;-46
2023/05/16 09:58:02;;;;;;;7.45;2.00;;;14.40;56.80;;;;;;5035828;28;20037;-46
2023/05/16 10:00:32;;;;;;;4.45;1.65;;;14.30;56.40;;;;;;5052317;28;20041;-50
2023/05/16 10:03:02;;;;;;;6.35;1.98;;;14.40;57.90;;;;;;5055116;28;20115;-46
2023/05/16 10:05:30;;;;;;;18.75;3.25;;;14.80;58.70;;;;;;5033793;28;20041;-47
2023/05/16 10:08:07;;;;;;;10.23;1.85;;;14.50;59.80;;;;;;5054718;28;20075;-46
2023/05/16 10:10:37;;;;;;;5.13;1.75;;;14.50;60.50;;;;;;5044788;28;20021;-46
2023/05/16 10:13:06;;;;;;;10.90;2.65;;;14.40;56.70;;;;;;5052088;28;20041;-46
2023/05/16 10:15:36;;;;;;;9.35;2.28;;;13.90;60.80;;;;;;5037113;28;20041;-46
2023/05/16 10:18:10;;;;;;;10.00;2.40;;;14.40;61.00;;;;;;5020909;28;20045;-46
2023/05/16 10:20:40;;;;;;;9.93;1.88;;;14.00;58.90;;;;;;5054602;28;20286;-46
2023/05/16 10:23:08;;;;;;;;;;;13.30;60.60;;;;;;5036614;28;20120;-47
2023/05/16 10:25:43;;;;;;;4.90;1.38;;;13.10;60.90;;;;;;5016861;28;19974;-48
2023/05/16 10:28:12;;;;;;;6.85;1.75;;;12.90;64.40;;;;;;5045028;28;20021;-47
2023/05/16 10:30:45;;;;;;;9.10;1.58;;;12.70;67.70;;;;;;5035495;28;20069;-46
2023/05/16 10:33:16;;;;;;;9.40;2.13;;;12.70;67.30;;;;;;5016958;28;20033;-50
2023/05/16 10:35:45;;;;;;;11.60;2.85;;;13.20;68.60;;;;;;5033392;28;20060;-50
2023/05/16 10:38:16;;;;;;;12.43;2.40;;;13.90;67.10;;;;;;5034728;28;20087;-46
2023/05/16 10:40:54;;;;;;;9.88;3.53;;;14.30;65.20;;;;;;5019645;28;20056;-46
2023/05/16 10:43:29;;;;;;;11.55;2.60;;;14.70;64.70;;;;;;5035047;28;20096;-47
2023/05/16 10:45:57;;;;;;;10.68;2.55;;;14.70;62.60;;;;;;5047165;28;20022;-47
2023/05/16 10:48:31;;;;;;;14.13;2.78;;;15.00;62.50;;;;;;5016723;28;20036;-47
2023/05/16 10:51:01;;;;;;;10.82;2.45;;;14.80;62.10;;;;;;5034616;28;20033;-47
2023/05/16 10:53:27;;;;;;;;;;;15.00;60.70;;;;;;5038823;28;20045;-47
2023/05/16 10:56:02;;;;;;;10.27;2.50;;;14.30;62.20;;;;;;5035993;28;20369;-48
2023/05/16 10:58:43;;;;;;;8.82;2.08;;;14.50;61.10;;;;;;5049251;28;20028;-46
2023/05/16 11:01:30;;;;;;;7.53;1.73;;;14.60;60.10;;;;;;5035806;28;20064;-46
2023/05/16 11:04:04;;;;;;;7.60;2.42;;;13.80;61.20;;;;;;5039703;28;20040;-46
2023/05/16 11:06:50;;;;;;;10.82;3.03;;;13.40;61.70;;;;;;5033300;28;20024;-46
2023/05/16 11:09:34;;;;;;;6.97;1.92;;;12.70;62.60;;;;;;5024927;28;20028;-47
2023/05/16 11:12:19;;;;;;;8.18;1.98;;;12.60;63.40;;;;;;5036230;28;20060;-46
2023/05/16 11:14:50;;;;;;;9.40;2.13;;;13.40;63.40;;;;;;5038173;28;20024;-47
2023/05/16 11:17:27;;;;;;;16.33;3.70;;;14.10;60.00;;;;;;5017340;28;20037;-46
2023/05/16 11:19:58;;;;;;;11.35;3.67;;;14.20;59.80;;;;;;5021993;28;20057;-46
2023/05/16 11:22:42;;;;;;;14.82;3.83;;;14.60;60.00;;;;;;5048932;28;20457;-46
2023/05/16 11:25:10;;;;;;;10.43;2.70;;;14.10;61.80;;;;;;5043403;28;20451;-48
2023/05/16 11:27:50;;;;;;;11.30;2.35;;;13.60;63.40;;;;;;5052600;28;20521;-46
2023/05/16 11:30:26;;;;;;;19.38;3.67;;;13.90;62.20;;;;;;5034475;28;20029;-47
2023/05/16 11:32:54;;;;;;;12.82;3.05;;;13.90;63.20;;;;;;5048109;28;20332;-46
2023/05/16 11:35:22;;;;;;;14.55;3.85;;;14.30;62.80;;;;;;5032492;28;20039;-48
2023/05/16 11:37:49;;;;;;;10.20;2.17;;;14.10;62.60;;;;;;5032907;28;20030;-46
2023/05/16 11:40:16;;;;;;;7.65;1.88;;;14.40;62.20;;;;;;5036331;28;20107;-46
2023/05/16 11:42:46;;;;;;;10.52;2.10;;;14.60;60.70;;;;;;5049419;28;20375;-45
2023/05/16 11:45:24;;;;;;;10.57;3.03;;;15.00;60.60;;;;;;5035143;28;20040;-46
2023/05/16 11:47:55;;;;;;;9.40;2.65;;;15.20;60.00;;;;;;5044303;28;20037;-47
2023/05/16 11:50:25;;;;;;;8.95;1.83;;;14.70;59.00;;;;;;5052119;28;20071;-47
2023/05/16 11:52:55;;;;;;;13.25;3.10;;;14.10;60.60;;;;;;5036588;28;20037;-46
2023/05/16 11:55:25;;;;;;;9.07;2.30;;;14.20;60.70;;;;;;5031276;28;20029;-46
2023/05/16 11:57:54;;;;;;;15.02;3.15;;;14.40;60.60;;;;;;5020759;28;20040;-46
2023/05/16 12:00:24;;;;;;;11.40;2.60;;;14.00;60.50;;;;;;5050491;28;20041;-46
2023/05/16 12:03:03;;;;;;;12.90;2.45;;;13.80;63.20;;;;;;5031436;28;20037;-48
2023/05/16 12:05:31;;;;;;;10.73;2.45;;;14.30;62.40;;;;;;5035310;28;20117;-46
2023/05/16 12:07:59;;;;;;;10.23;2.28;;;14.30;60.20;;;;;;5048207;28;20033;-48
2023/05/16 12:10:26;;;;;;;7.85;2.15;;;14.20;61.00;;;;;;5015827;28;20422;-47
2023/05/16 12:12:51;;;;;;;9.93;2.20;;;14.40;61.20;;;;;;5046807;28;20033;-47
2023/05/16 12:15:19;;;;;;;10.93;2.63;;;14.20;62.70;;;;;;5051937;28;20043;-46
2023/05/16 12:17:46;;;;;;;12.88;2.30;;;14.00;62.60;;;;;;5021027;28;20569;-46
2023/05/16 12:20:16;;;;;;;6.30;2.03;;;13.80;62.00;;;;;;5043242;28;20057;-46
2023/05/16 12:22:45;;;;;;;8.85;2.50;;;13.60;61.50;;;;;;5036341;28;20029;-46
2023/05/16 12:25:31;;;;;;;13.77;2.92;;;13.40;63.10;;;;;;5024652;28;20028;-50
2023/05/16 12:28:00;;;;;;;13.32;2.60;;;13.40;65.20;;;;;;5051440;28;20039;-48
2023/05/16 12:30:46;;;;;;;10.80;2.45;;;13.70;64.10;;;;;;5051690;28;20308;-47
2023/05/16 12:33:14;;;;;;;10.88;2.65;;;13.50;63.90;;;;;;5030250;28;20030;-46
2023/05/16 12:35:47;;;;;;;12.23;2.70;;;13.40;65.50;;;;;;5033064;28;20029;-46
2023/05/16 12:38:17;;;;;;;12.85;3.10;;;13.20;66.60;;;;;;5033259;28;20097;-46
2023/05/16 12:40:48;;;;;;;11.43;2.80;;;12.90;66.00;;;;;;5037806;28;20044;-47
2023/05/16 12:43:14;;;;;;;10.68;2.67;;;12.70;64.70;;;;;;5035219;28;20536;-48
2023/05/16 12:45:42;;;;;;;11.32;2.63;;;12.70;66.80;;;;;;5043049;28;20032;-46
2023/05/16 12:48:16;;;;;;;17.15;2.97;;;12.70;68.00;;;;;;5038777;28;20037;-46
2023/05/16 12:50:45;;;;;;;13.75;3.60;;;12.60;66.70;;;;;;5034531;28;20110;-46
2023/05/16 12:53:13;;;;;;;10.13;1.80;;;12.90;68.70;;;;;;5039844;28;20328;-45
2023/05/16 12:55:41;;;;;;;5.07;1.67;;;12.30;70.60;;;;;;5030161;28;20366;-44
2023/05/16 12:58:10;;;;;;;9.65;1.90;;;11.70;69.50;;;;;;5020820;28;20740;-46